Time;durP1;ratioP1;P1;durP2;ratioP2;P2;SDS_P1;SDS_P2;PMS_P1;PMS_P2;Temp;Humidity;BMP_temperature;BMP_pressure;BME280_temperature;BME280_humidity;BME280_pressure;Samples;Min_cycle;Max_cycle;Signal;HPM_P1;HPM_P2
2023/06/28 00:01:31;;;;;;;4.97;4.10;;;;;;;;;;5013133;28;20991;-77
2023/06/28 00:03:58;;;;;;;4.73;4.10;;;;;;;;;;5017220;28;20458;-77
2023/06/28 00:06:25;;;;;;;4.73;4.30;;;;;;;;;;5016879;28;20439;-77
2023/06/28 00:08:53;;;;;;;5.40;4.13;;;;;;;;;;5016787;28;20763;-76
2023/06/28 00:11:20;;;;;;;5.53;4.33;;;;;;;;;;5016799;28;21018;-76
2023/06/28 00:13:47;;;;;;;7.93;4.77;;;;;;;;;;5016879;28;20457;-76
2023/06/28 00:16:14;;;;;;;9.93;5.20;;;;;;;;;;5016853;28;20515;-76
2023/06/28 00:18:45;;;;;;;5.50;4.80;;;;;;;;;;5016571;28;20447;-76
2023/06/28 00:21:13;;;;;;;6.00;4.93;;;;;;;;;;5016620;28;20540;-75
2023/06/28 00:23:40;;;;;;;4.07;3.73;;;;;;;;;;5016316;28;20470;-75
2023/06/28 00:26:07;;;;;;;7.67;4.87;;;;;;;;;;5016712;28;20455;-75
2023/06/28 00:28:34;;;;;;;8.03;5.73;;;;;;;;;;5016385;28;20943;-75
2023/06/28 00:31:02;;;;;;;5.97;4.70;;;;;;;;;;5016558;28;20474;-75
2023/06/28 00:33:29;;;;;;;7.23;4.97;;;;;;;;;;5016298;28;20520;-76
2023/06/28 00:35:57;;;;;;;7.27;4.37;;;;;;;;;;5016566;28;20738;-75
2023/06/28 00:38:24;;;;;;;6.63;4.97;;;;;;;;;;5016130;28;20943;-76
2023/06/28 00:40:52;;;;;;;5.47;4.70;;;;;;;;;;5016272;28;20501;-75
2023/06/28 00:43:19;;;;;;;5.40;4.90;;;;;;;;;;5016403;28;20446;-76
2023/06/28 00:45:46;;;;;;;6.90;5.37;;;;;;;;;;5016254;28;20455;-76
2023/06/28 00:48:13;;;;;;;6.67;5.03;;;;;;;;;;5016008;28;20454;-76
2023/06/28 00:50:41;;;;;;;6.83;6.13;;;;;;;;;;5016060;28;20470;-75
2023/06/28 00:53:09;;;;;;;8.67;5.20;;;;;;;;;;5016155;28;20450;-75
2023/06/28 00:55:36;;;;;;;7.50;5.83;;;;;;;;;;5016075;28;20950;-75
2023/06/28 00:58:04;;;;;;;8.47;5.20;;;;;;;;;;5016036;28;20455;-76
2023/06/28 01:00:31;;;;;;;14.33;6.00;;;;;;;;;;5015694;28;20526;-75
2023/06/28 01:03:00;;;;;;;5.70;5.20;;;;;;;;;;5015880;28;20446;-75
2023/06/28 01:05:27;;;;;;;5.87;4.80;;;;;;;;;;5015746;28;20462;-75
2023/06/28 01:07:56;;;;;;;8.23;6.20;;;;;;;;;;5015607;28;20472;-76
2023/06/28 01:10:24;;;;;;;6.00;5.40;;;;;;;;;;5015664;28;20470;-76
2023/06/28 01:12:52;;;;;;;14.60;5.47;;;;;;;;;;5015494;28;20451;-77
2023/06/28 01:15:19;;;;;;;8.33;5.83;;;;;;;;;;5015458;28;20454;-76
2023/06/28 01:17:46;;;;;;;6.73;5.23;;;;;;;;;;5015376;28;20466;-76
2023/06/28 01:20:14;;;;;;;8.33;6.07;;;;;;;;;;5015447;28;20502;-76
2023/06/28 01:22:43;;;;;;;6.40;5.60;;;;;;;;;;5015814;28;20917;-76
2023/06/28 01:25:12;;;;;;;5.90;5.40;;;;;;;;;;5015230;28;20491;-76
2023/06/28 01:27:44;;;;;;;6.07;5.00;;;;;;;;;;5015339;28;20451;-76
2023/06/28 01:30:14;;;;;;;6.13;5.20;;;;;;;;;;5015447;28;20471;-76
2023/06/28 01:32:42;;;;;;;11.20;6.73;;;;;;;;;;5015329;28;20455;-76
2023/06/28 01:35:10;;;;;;;6.67;5.60;;;;;;;;;;5015268;28;20450;-75
2023/06/28 01:37:38;;;;;;;7.50;4.47;;;;;;;;;;5015004;28;20458;-75
2023/06/28 01:40:06;;;;;;;7.30;6.27;;;;;;;;;;5015075;28;20508;-75
2023/06/28 01:42:35;;;;;;;9.00;5.80;;;;;;;;;;5015177;28;20466;-75
2023/06/28 01:45:02;;;;;;;10.33;6.23;;;;;;;;;;5015148;28;20455;-75
2023/06/28 01:47:29;;;;;;;6.50;5.87;;;;;;;;;;5014850;28;20981;-76
2023/06/28 01:49:56;;;;;;;7.30;6.00;;;;;;;;;;5014971;28;20981;-76
2023/06/28 01:52:24;;;;;;;6.50;5.90;;;;;;;;;;5014930;28;20452;-76
2023/06/28 01:54:51;;;;;;;14.60;5.77;;;;;;;;;;5014827;28;20458;-75
2023/06/28 01:57:18;;;;;;;6.53;5.83;;;;;;;;;;5014755;28;20450;-75
2023/06/28 01:59:46;;;;;;;10.80;6.50;;;;;;;;;;5014688;28;20501;-75
2023/06/28 02:02:13;;;;;;;6.07;5.47;;;;;;;;;;5015008;28;20451;-75
2023/06/28 02:04:40;;;;;;;7.23;6.00;;;;;;;;;;5014788;28;20474;-75
2023/06/28 02:07:08;;;;;;;8.10;6.70;;;;;;;;;;5014438;28;20450;-75
2023/06/28 02:09:35;;;;;;;6.53;5.60;;;;;;;;;;5014507;28;20477;-75
2023/06/28 02:12:02;;;;;;;10.17;6.13;;;;;;;;;;5014703;28;20462;-75
2023/06/28 02:14:29;;;;;;;14.33;6.10;;;;;;;;;;5014585;28;20952;-75
2023/06/28 02:16:58;;;;;;;7.97;6.53;;;;;;;;;;5014337;28;20447;-75
2023/06/28 02:19:25;;;;;;;7.03;6.43;;;;;;;;;;5014434;28;20844;-75
2023/06/28 02:21:52;;;;;;;6.00;5.40;;;;;;;;;;5014340;28;20454;-77
2023/06/28 02:24:20;;;;;;;7.87;6.87;;;;;;;;;;5013491;28;20982;-76
2023/06/28 02:26:47;;;;;;;8.30;6.10;;;;;;;;;;5014174;28;20459;-77
2023/06/28 02:29:14;;;;;;;10.10;6.93;;;;;;;;;;5014242;28;20965;-75
2023/06/28 02:31:41;;;;;;;10.80;5.60;;;;;;;;;;5014088;28;20478;-75
2023/06/28 02:34:10;;;;;;;7.53;6.63;;;;;;;;;;5014108;28;20471;-75
2023/06/28 02:36:37;;;;;;;7.93;7.13;;;;;;;;;;5014022;28;20454;-76
2023/06/28 02:39:04;;;;;;;6.10;5.50;;;;;;;;;;5014041;28;20461;-75
2023/06/28 02:41:31;;;;;;;8.27;5.87;;;;;;;;;;5014084;28;20494;-75
2023/06/28 02:43:58;;;;;;;7.17;6.33;;;;;;;;;;5014058;28;20455;-75
2023/06/28 02:46:25;;;;;;;8.40;6.60;;;;;;;;;;5013837;28;20465;-75
2023/06/28 02:48:52;;;;;;;8.57;7.57;;;;;;;;;;5013856;28;20459;-75
2023/06/28 02:51:21;;;;;;;6.53;5.90;;;;;;;;;;5013815;28;20967;-75
2023/06/28 02:53:48;;;;;;;13.10;7.13;;;;;;;;;;5014150;28;20542;-75
2023/06/28 02:56:15;;;;;;;8.53;7.17;;;;;;;;;;5013777;28;20951;-75
2023/06/28 02:58:43;;;;;;;9.30;7.10;;;;;;;;;;5013633;28;20458;-75
2023/06/28 03:01:11;;;;;;;8.70;7.23;;;;;;;;;;5013568;28;20498;-75
2023/06/28 03:03:38;;;;;;;8.13;6.73;;;;;;;;;;5013642;28;20549;-75
2023/06/28 03:06:05;;;;;;;8.03;7.10;;;;;;;;;;5013897;28;20459;-75
2023/06/28 03:08:33;;;;;;;8.87;7.37;;;;;;;;;;5013468;28;20451;-75
2023/06/28 03:11:01;;;;;;;13.20;8.00;;;;;;;;;;5013662;28;20498;-75
2023/06/28 03:13:28;;;;;;;13.50;7.83;;;;;;;;;;5013741;28;20446;-75
2023/06/28 03:15:55;;;;;;;8.60;7.70;;;;;;;;;;5013614;28;20455;-75
2023/06/28 03:18:22;;;;;;;11.30;7.70;;;;;;;;;;5013315;28;20605;-75
2023/06/28 03:20:49;;;;;;;8.37;7.63;;;;;;;;;;5013457;28;20862;-73
2023/06/28 03:23:17;;;;;;;9.23;8.43;;;;;;;;;;5013578;28;20450;-73
2023/06/28 03:25:45;;;;;;;8.50;7.50;;;;;;;;;;5013432;28;20462;-73
2023/06/28 03:28:13;;;;;;;11.10;8.90;;;;;;;;;;5013897;28;20990;-73
2023/06/28 03:30:40;;;;;;;10.77;9.60;;;;;;;;;;5013663;28;20471;-73
2023/06/28 03:33:07;;;;;;;10.37;9.30;;;;;;;;;;5013081;28;20447;-73
2023/06/28 03:35:34;;;;;;;10.70;8.53;;;;;;;;;;5013242;28;20538;-73
2023/06/28 03:38:01;;;;;;;11.83;9.90;;;;;;;;;;5012760;28;20459;-74
2023/06/28 03:40:29;;;;;;;11.10;9.90;;;;;;;;;;5013155;28;20490;-74
2023/06/28 03:42:57;;;;;;;15.67;10.87;;;;;;;;;;5012787;28;20454;-73
2023/06/28 03:45:24;;;;;;;10.27;9.17;;;;;;;;;;5013137;28;20455;-73
2023/06/28 03:47:53;;;;;;;16.07;10.70;;;;;;;;;;5013029;28;20454;-73
2023/06/28 03:50:20;;;;;;;9.90;9.00;;;;;;;;;;5012993;28;20475;-73
2023/06/28 03:52:47;;;;;;;12.10;10.50;;;;;;;;;;5012897;28;20455;-73
2023/06/28 03:55:16;;;;;;;13.70;10.37;;;;;;;;;;5013098;28;20815;-73
2023/06/28 03:57:43;;;;;;;10.30;9.33;;;;;;;;;;5012898;28;20482;-73
2023/06/28 04:00:12;;;;;;;11.40;10.20;;;;;;;;;;5012509;28;20495;-73
2023/06/28 04:02:40;;;;;;;10.30;8.47;;;;;;;;;;5012544;28;20462;-73
2023/06/28 04:05:07;;;;;;;13.20;10.70;;;;;;;;;;5012918;28;20947;-73
2023/06/28 04:07:34;;;;;;;13.30;9.63;;;;;;;;;;5012876;28;20451;-73
2023/06/28 04:10:03;;;;;;;10.50;9.60;;;;;;;;;;5012810;28;20471;-73
2023/06/28 04:12:30;;;;;;;13.43;9.77;;;;;;;;;;5012901;28;20549;-74
2023/06/28 04:14:57;;;;;;;11.47;10.10;;;;;;;;;;5012988;28;20554;-73
2023/06/28 04:17:26;;;;;;;11.73;10.27;;;;;;;;;;5012624;28;20450;-73
2023/06/28 04:19:53;;;;;;;11.33;8.93;;;;;;;;;;5012870;28;20474;-73
2023/06/28 04:22:20;;;;;;;10.60;9.50;;;;;;;;;;5013058;28;20450;-75
2023/06/28 04:24:47;;;;;;;11.30;9.50;;;;;;;;;;5012394;28;20454;-75
2023/06/28 04:27:14;;;;;;;11.37;10.20;;;;;;;;;;5012732;28;20442;-74
2023/06/28 04:29:41;;;;;;;13.10;11.60;;;;;;;;;;5012411;28;20447;-75
2023/06/28 04:32:22;;;;;;;11.63;9.83;;;;;;;;;;5012760;28;20450;-75
2023/06/28 04:34:52;;;;;;;12.60;10.13;;;;;;;;;;5012333;28;20524;-75
2023/06/28 04:37:20;;;;;;;11.17;9.97;;;;;;;;;;5012607;28;20443;-74
2023/06/28 04:39:47;;;;;;;11.80;10.60;;;;;;;;;;5012443;28;20479;-74
2023/06/28 04:42:15;;;;;;;13.60;11.20;;;;;;;;;;5012701;28;20489;-75
2023/06/28 04:44:43;;;;;;;12.27;11.03;;;;;;;;;;5012674;28;20944;-75
2023/06/28 04:47:15;;;;;;;13.90;10.23;;;;;;;;;;5012558;28;20781;-74
2023/06/28 04:49:42;;;;;;;11.67;10.43;;;;;;;;;;5015614;28;20482;-74
2023/06/28 04:52:12;;;;;;;11.27;9.80;;;;;;;;;;5015726;28;20461;-74
2023/06/28 04:54:40;;;;;;;10.30;8.60;;;;;;;;;;5016165;28;20494;-74
2023/06/28 04:57:07;;;;;;;10.27;8.53;;;;;;;;;;5016070;28;20534;-74
2023/06/28 04:59:34;;;;;;;10.60;9.53;;;;;;;;;;5015976;28;20936;-74
2023/06/28 05:02:03;;;;;;;9.97;8.83;;;;;;;;;;5015525;28;20490;-74
2023/06/28 05:04:32;;;;;;;8.63;7.90;;;;;;;;;;5016062;28;20459;-74
2023/06/28 05:07:01;;;;;;;11.73;9.20;;;;;;;;;;5016357;28;20833;-74
2023/06/28 05:09:30;;;;;;;10.10;8.73;;;;;;;;;;5015798;28;20459;-74
2023/06/28 05:11:57;;;;;;;14.00;9.40;;;;;;;;;;5008772;28;20823;-74
2023/06/28 05:14:24;;;;;;;9.80;7.63;;;;;;;;;;4996170;28;20456;-74
2023/06/28 05:16:52;;;;;;;7.83;6.67;;;;;;;;;;4996002;28;20937;-74
2023/06/28 05:19:19;;;;;;;10.53;7.90;;;;;;;;;;4996016;28;20871;-74
2023/06/28 05:21:46;;;;;;;9.10;7.57;;;;;;;;;;4995724;28;20856;-74
2023/06/28 05:24:13;;;;;;;9.67;7.50;;;;;;;;;;4995641;28;20451;-74
2023/06/28 05:26:41;;;;;;;8.20;6.93;;;;;;;;;;4995991;28;20805;-74
2023/06/28 05:29:09;;;;;;;9.80;8.13;;;;;;;;;;4995353;28;20463;-74
2023/06/28 05:31:37;;;;;;;8.23;7.43;;;;;;;;;;4995735;28;20995;-74
2023/06/28 05:34:05;;;;;;;9.47;7.47;;;;;;;;;;4995433;28;20831;-74
2023/06/28 05:36:32;;;;;;;9.20;7.03;;;;;;;;;;4995628;28;20451;-74
2023/06/28 05:39:00;;;;;;;8.60;7.00;;;;;;;;;;4995489;28;20555;-74
2023/06/28 05:41:27;;;;;;;6.90;6.30;;;;;;;;;;4995070;28;20491;-74
2023/06/28 05:43:55;;;;;;;10.70;6.47;;;;;;;;;;4995270;28;20440;-74
2023/06/28 05:46:22;;;;;;;7.23;6.57;;;;;;;;;;4995556;28;20456;-74
2023/06/28 05:48:51;;;;;;;5.90;5.40;;;;;;;;;;4995529;28;20972;-74
2023/06/28 05:51:18;;;;;;;6.90;6.30;;;;;;;;;;4995254;28;20562;-75
2023/06/28 05:53:45;;;;;;;7.37;6.67;;;;;;;;;;4995277;28;20451;-74
2023/06/28 05:56:12;;;;;;;6.00;5.50;;;;;;;;;;4995514;28;20567;-74
2023/06/28 05:58:39;;;;;;;6.83;5.77;;;;;;;;;;4995307;28;20448;-74
2023/06/28 06:01:08;;;;;;;5.20;4.80;;;;;;;;;;4993972;28;20496;-74
2023/06/28 06:03:35;;;;;;;6.50;5.83;;;;;;;;;;4995385;28;20443;-74
2023/06/28 06:06:02;;;;;;;5.20;4.70;;;;;;;;;;4994938;28;20467;-74
2023/06/28 06:08:29;;;;;;;4.43;4.03;;;;;;;;;;4995096;28;20463;-74
2023/06/28 06:10:56;;;;;;;5.10;4.70;;;;;;;;;;4994737;28;20472;-74
2023/06/28 06:13:23;;;;;;;12.60;5.40;;;;;;;;;;4995073;28;20448;-75
2023/06/28 06:15:51;;;;;;;5.20;4.70;;;;;;;;;;4994834;28;20495;-75
2023/06/28 06:18:19;;;;;;;6.63;5.40;;;;;;;;;;4994976;28;20817;-75
2023/06/28 06:20:46;;;;;;;4.40;3.60;;;;;;;;;;4994563;28;20491;-75
2023/06/28 06:23:16;;;;;;;4.27;3.67;;;;;;;;;;4994901;28;20452;-75
2023/06/28 06:25:43;;;;;;;5.83;4.10;;;;;;;;;;4994495;28;20432;-75
2023/06/28 06:28:10;;;;;;;5.03;4.10;;;;;;;;;;4994673;28;20451;-75
2023/06/28 06:30:38;;;;;;;3.20;2.83;;;;;;;;;;4994434;28;20478;-75
2023/06/28 06:33:05;;;;;;;4.33;3.80;;;;;;;;;;4994659;28;20444;-76
2023/06/28 06:35:33;;;;;;;5.97;4.03;;;;;;;;;;4994625;28;20902;-76
2023/06/28 06:38:00;;;;;;;4.40;3.27;;;;;;;;;;4994412;28;20452;-75
2023/06/28 06:40:27;;;;;;;6.50;3.27;;;;;;;;;;4994365;28;21005;-75
2023/06/28 06:42:55;;;;;;;4.37;3.50;;;;;;;;;;4994612;28;20485;-76
2023/06/28 06:45:22;;;;;;;3.30;2.97;;;;;;;;;;4994228;28;20463;-76
2023/06/28 06:47:49;;;;;;;3.83;3.53;;;;;;;;;;4994472;28;20455;-76
2023/06/28 06:50:17;;;;;;;4.00;3.60;;;;;;;;;;4994113;28;20487;-76
2023/06/28 06:52:45;;;;;;;5.80;3.40;;;;;;;;;;4994325;28;20478;-76
2023/06/28 06:55:12;;;;;;;4.87;3.57;;;;;;;;;;4994317;28;20456;-76
2023/06/28 06:57:40;;;;;;;3.80;3.10;;;;;;;;;;4994357;28;20956;-76
2023/06/28 07:00:08;;;;;;;9.43;4.30;;;;;;;;;;4994139;28;20471;-76
2023/06/28 07:02:35;;;;;;;4.57;3.83;;;;;;;;;;4993819;28;20491;-76
2023/06/28 07:05:03;;;;;;;4.33;3.50;;;;;;;;;;4994133;28;20463;-75
2023/06/28 07:07:30;;;;;;;3.70;3.40;;;;;;;;;;4994061;28;20455;-76
2023/06/28 07:09:59;;;;;;;3.90;3.60;;;;;;;;;;4993862;28;20817;-76
2023/06/28 07:12:26;;;;;;;6.47;4.17;;;;;;;;;;4993387;28;20458;-76
2023/06/28 07:14:53;;;;;;;13.30;5.67;;;;;;;;;;4993702;28;20551;-75
2023/06/28 07:17:20;;;;;;;3.97;3.57;;;;;;;;;;4993959;28;20463;-76
2023/06/28 07:19:47;;;;;;;5.23;4.63;;;;;;;;;;4993411;28;20476;-76
2023/06/28 07:22:15;;;;;;;7.30;5.87;;;;;;;;;;4993846;28;21004;-76
2023/06/28 07:24:42;;;;;;;3.67;3.37;;;;;;;;;;4993642;28;20963;-76
2023/06/28 07:27:10;;;;;;;3.63;3.00;;;;;;;;;;4994028;28;20432;-75
2023/06/28 07:29:37;;;;;;;5.90;3.40;;;;;;;;;;4993449;28;20447;-76
2023/06/28 07:32:05;;;;;;;3.73;3.33;;;;;;;;;;4993797;28;20952;-76
2023/06/28 07:34:32;;;;;;;4.57;4.17;;;;;;;;;;4993193;28;20471;-76
2023/06/28 07:37:01;;;;;;;4.73;4.30;;;;;;;;;;4993754;28;20817;-76
2023/06/28 07:39:30;;;;;;;9.20;3.13;;;;;;;;;;4993599;28;20460;-76
2023/06/28 07:41:57;;;;;;;5.53;3.07;;;;;;;;;;4993539;28;20487;-76
2023/06/28 07:44:26;;;;;;;3.77;3.23;;;;;;;;;;4993080;28;20960;-76
2023/06/28 07:46:53;;;;;;;3.20;2.73;;;;;;;;;;4993148;28;20455;-75
2023/06/28 07:49:20;;;;;;;4.30;3.00;;;;;;;;;;4993452;28;20829;-76
2023/06/28 07:51:47;;;;;;;5.10;4.07;;;;;;;;;;4993296;28;20485;-76
2023/06/28 07:54:14;;;;;;;7.47;4.20;;;;;;;;;;4993434;28;20971;-76
2023/06/28 07:56:41;;;;;;;3.50;3.03;;;;;;;;;;4993515;28;20456;-76
2023/06/28 07:59:09;;;;;;;3.63;3.03;;;;;;;;;;4993165;28;20451;-76
2023/06/28 08:01:37;;;;;;;4.43;2.80;;;;;;;;;;4992832;28;20561;-75
2023/06/28 08:04:04;;;;;;;5.30;3.33;;;;;;;;;;4993152;28;20479;-76
2023/06/28 08:06:31;;;;;;;3.47;2.87;;;;;;;;;;4993133;28;20455;-76
2023/06/28 08:08:58;;;;;;;3.37;2.97;;;;;;;;;;4993296;28;20836;-76
2023/06/28 08:11:26;;;;;;;5.47;3.60;;;;;;;;;;4993085;28;20475;-76
2023/06/28 08:13:54;;;;;;;5.30;2.37;;;;;;;;;;4992896;28;20460;-76
2023/06/28 08:16:21;;;;;;;3.10;2.80;;;;;;;;;;4993500;28;20526;-76
2023/06/28 08:18:49;;;;;;;3.57;3.27;;;;;;;;;;4993187;28;20448;-75
2023/06/28 08:21:16;;;;;;;3.20;3.00;;;;;;;;;;4993110;28;21003;-76
2023/06/28 08:23:43;;;;;;;3.33;3.00;;;;;;;;;;4994985;28;20893;-76
2023/06/28 08:26:10;;;;;;;5.27;2.90;;;;;;;;;;4996940;28;20815;-75
2023/06/28 08:28:38;;;;;;;3.37;2.53;;;;;;;;;;4996696;28;20456;-76
2023/06/28 08:31:05;;;;;;;3.70;2.80;;;;;;;;;;4997115;28;20984;-76
2023/06/28 08:33:32;;;;;;;5.17;3.30;;;;;;;;;;4996639;28;20467;-76
2023/06/28 08:36:00;;;;;;;3.70;2.87;;;;;;;;;;4997107;28;20808;-77
2023/06/28 08:38:28;;;;;;;3.10;2.23;;;;;;;;;;4997021;28;20460;-76
2023/06/28 08:40:55;;;;;;;3.97;2.13;;;;;;;;;;4996693;28;20991;-76
2023/06/28 08:43:23;;;;;;;3.00;2.70;;;;;;;;;;4996607;28;20502;-76
2023/06/28 08:45:50;;;;;;;2.53;2.23;;;;;;;;;;4997188;28;20829;-77
2023/06/28 08:48:19;;;;;;;3.37;2.20;;;;;;;;;;4996726;28;20464;-76
2023/06/28 08:50:47;;;;;;;3.13;2.23;;;;;;;;;;4999389;28;20582;-76
2023/06/28 08:53:19;;;;;;;4.13;2.53;;;;;;;;;;4996385;28;20455;-77
2023/06/28 08:55:47;;;;;;;3.13;2.60;;;;;;;;;;4996008;28;20455;-76
2023/06/28 08:58:16;;;;;;;3.97;2.20;;;;;;;;;;5014112;28;20485;-77
2023/06/28 09:00:45;;;;;;;3.67;2.30;;;;;;;;;;5015083;28;20509;-77
2023/06/28 09:03:13;;;;;;;2.47;2.27;;;;;;;;;;5014728;28;21038;-75
2023/06/28 09:05:40;;;;;;;2.97;2.50;;;;;;;;;;5014685;28;20546;-77
2023/06/28 09:08:08;;;;;;;2.60;2.30;;;;;;;;;;5015105;28;20454;-77
2023/06/28 09:10:37;;;;;;;2.97;2.70;;;;;;;;;;5014455;28;20486;-77
2023/06/28 09:13:05;;;;;;;2.73;2.20;;;;;;;;;;5014573;28;20462;-76
2023/06/28 09:15:32;;;;;;;4.00;2.60;;;;;;;;;;5014566;28;20461;-77
2023/06/28 09:17:59;;;;;;;3.63;2.70;;;;;;;;;;5014507;28;20976;-77
2023/06/28 09:20:26;;;;;;;2.80;2.50;;;;;;;;;;5015748;28;20474;-76
2023/06/28 09:22:57;;;;;;;4.23;2.50;;;;;;;;;;5014972;28;20838;-77
2023/06/28 09:25:24;;;;;;;2.57;2.37;;;;;;;;;;5014267;28;20461;-75
2023/06/28 09:27:54;;;;;;;4.40;2.60;;;;;;;;;;5014415;28;20461;-75
2023/06/28 09:30:21;;;;;;;3.23;2.40;;;;;;;;;;5015017;28;20995;-75
2023/06/28 09:32:51;;;;;;;4.37;2.90;;;;;;;;;;5014748;28;20521;-75
2023/06/28 09:35:18;;;;;;;4.27;2.60;;;;;;;;;;5015186;28;20458;-75
2023/06/28 09:37:50;;;;;;;3.90;2.63;;;;;;;;;;5014932;28;20822;-75
2023/06/28 09:40:17;;;;;;;3.40;2.43;;;;;;;;;;5015787;28;20569;-77
2023/06/28 09:42:45;;;;;;;3.53;2.73;;;;;;;;;;5015716;28;20490;-77
2023/06/28 09:45:23;;;;;;;2.47;2.20;;;;;;;;;;5016402;28;20458;-77
2023/06/28 09:47:55;;;;;;;3.20;2.40;;;;;;;;;;5016960;28;20451;-76
2023/06/28 09:50:22;;;;;;;4.87;2.90;;;;;;;;;;5016535;28;20479;-77
2023/06/28 09:52:49;;;;;;;4.10;3.23;;;;;;;;;;5016257;28;20542;-76
2023/06/28 09:55:17;;;;;;;4.63;2.40;;;;;;;;;;5016367;28;20455;-77
2023/06/28 09:57:45;;;;;;;3.10;2.13;;;;;;;;;;5016497;28;20467;-77
2023/06/28 10:00:14;;;;;;;3.77;2.43;;;;;;;;;;5015852;28;20836;-77
2023/06/28 10:02:43;;;;;;;4.80;2.17;;;;;;;;;;5015662;28;20505;-77
2023/06/28 10:05:11;;;;;;;2.43;2.07;;;;;;;;;;5016602;28;20467;-77
2023/06/28 10:07:39;;;;;;;2.90;2.30;;;;;;;;;;5016105;28;20469;-77
2023/06/28 10:10:07;;;;;;;2.53;2.33;;;;;;;;;;5015739;28;20851;-77
2023/06/28 10:12:35;;;;;;;4.60;2.50;;;;;;;;;;5015892;28;20458;-76
2023/06/28 10:15:03;;;;;;;4.47;2.90;;;;;;;;;;5015459;28;20455;-77
2023/06/28 10:17:35;;;;;;;3.80;2.63;;;;;;;;;;5014956;28;20462;-78
2023/06/28 10:20:04;;;;;;;3.23;2.47;;;;;;;;;;5016033;28;20594;-76
2023/06/28 10:22:31;;;;;;;4.60;2.67;;;;;;;;;;5014604;28;20489;-76
2023/06/28 10:24:59;;;;;;;3.70;2.63;;;;;;;;;;5014462;28;20557;-76
2023/06/28 10:27:26;;;;;;;3.37;2.47;;;;;;;;;;5013977;28;20509;-76
2023/06/28 10:29:54;;;;;;;2.97;2.10;;;;;;;;;;5014663;28;20475;-77
2023/06/28 10:32:22;;;;;;;3.40;2.13;;;;;;;;;;5015324;28;20948;-77
2023/06/28 10:34:50;;;;;;;3.50;2.37;;;;;;;;;;5013672;28;20474;-77
2023/06/28 10:37:21;;;;;;;4.03;2.87;;;;;;;;;;5015676;28;20553;-78
2023/06/28 10:39:48;;;;;;;3.70;2.07;;;;;;;;;;5015613;28;20843;-78
2023/06/28 10:42:15;;;;;;;3.67;2.20;;;;;;;;;;5017770;28;20999;-78
2023/06/28 10:44:51;;;;;;;4.43;2.57;;;;;;;;;;5016949;28;20457;-78
2023/06/28 10:47:19;;;;;;;3.70;2.33;;;;;;;;;;5013815;28;20882;-77
2023/06/28 10:50:05;;;;;;;3.20;2.20;;;;;;;;;;5015869;28;20478;-77
2023/06/28 10:52:32;;;;;;;2.70;2.07;;;;;;;;;;5015289;28;20466;-78
2023/06/28 10:54:59;;;;;;;2.23;1.90;;;;;;;;;;5015111;28;20463;-77
2023/06/28 10:57:34;;;;;;;4.30;2.53;;;;;;;;;;5012672;28;20946;-75
2023/06/28 11:00:02;;;;;;;3.77;3.03;;;;;;;;;;5013294;28;20832;-76
2023/06/28 11:02:45;;;;;;;3.20;2.23;;;;;;;;;;5013283;28;20475;-76
2023/06/28 11:05:14;;;;;;;2.53;2.33;;;;;;;;;;5012875;28;20465;-76
2023/06/28 11:07:52;;;;;;;2.90;2.60;;;;;;;;;;5012960;28;20451;-76
2023/06/28 11:10:19;;;;;;;3.90;3.00;;;;;;;;;;5013058;28;20493;-76
2023/06/28 11:12:47;;;;;;;3.10;2.30;;;;;;;;;;5012967;28;20455;-75
2023/06/28 11:15:15;;;;;;;3.93;2.07;;;;;;;;;;5012756;28;20446;-75
2023/06/28 11:17:42;;;;;;;4.77;3.43;;;;;;;;;;5013018;28;20450;-75
2023/06/28 11:20:11;;;;;;;4.60;2.67;;;;;;;;;;5012850;28;20466;-75
2023/06/28 11:22:51;;;;;;;4.80;2.50;;;;;;;;;;5013067;28;20928;-74
2023/06/28 11:25:18;;;;;;;3.60;2.30;;;;;;;;;;5013259;28;20446;-75
2023/06/28 11:27:47;;;;;;;8.03;4.60;;;;;;;;;;5013159;28;20450;-75
2023/06/28 11:30:15;;;;;;;5.60;2.70;;;;;;;;;;5012779;28;20525;-75
2023/06/28 11:32:42;;;;;;;8.53;2.47;;;;;;;;;;5013259;28;20982;-75
2023/06/28 11:35:10;;;;;;;2.80;2.23;;;;;;;;;;5012732;28;20458;-75
2023/06/28 11:37:38;;;;;;;3.00;2.50;;;;;;;;;;5012862;28;20464;-76
2023/06/28 11:40:07;;;;;;;3.57;2.20;;;;;;;;;;5012582;28;20483;-75
2023/06/28 11:42:34;;;;;;;4.33;2.47;;;;;;;;;;5012160;28;20796;-74
2023/06/28 11:45:02;;;;;;;5.37;2.20;;;;;;;;;;5012447;28;20490;-75
2023/06/28 11:47:29;;;;;;;2.83;2.60;;;;;;;;;;5012142;28;20455;-75
2023/06/28 11:49:56;;;;;;;3.27;2.40;;;;;;;;;;5011676;28;20501;-75
2023/06/28 11:52:25;;;;;;;2.93;2.73;;;;;;;;;;5012651;28;20477;-75
2023/06/28 11:54:52;;;;;;;6.00;2.83;;;;;;;;;;5012745;28;20951;-75
2023/06/28 11:57:21;;;;;;;4.27;2.60;;;;;;;;;;5012784;28;20462;-75
2023/06/28 11:59:51;;;;;;;3.00;2.37;;;;;;;;;;5016570;28;20839;-75
2023/06/28 12:02:18;;;;;;;2.67;2.20;;;;;;;;;;5017230;28;20812;-75
2023/06/28 12:04:55;;;;;;;4.70;2.20;;;;;;;;;;5016710;28;20459;-75
2023/06/28 12:07:23;;;;;;;4.53;2.87;;;;;;;;;;5015145;28;20936;-75
2023/06/28 12:09:55;;;;;;;3.70;2.23;;;;;;;;;;5003910;28;20840;-75
2023/06/28 12:12:33;;;;;;;3.30;2.63;;;;;;;;;;5006203;28;20448;-75
2023/06/28 12:15:00;;;;;;;4.87;2.90;;;;;;;;;;5007221;28;20920;-75
2023/06/28 12:17:27;;;;;;;2.53;2.17;;;;;;;;;;5006338;28;20466;-74
2023/06/28 12:19:54;;;;;;;2.47;2.00;;;;;;;;;;4999299;28;20479;-75
2023/06/28 12:22:21;;;;;;;6.70;2.80;;;;;;;;;;4996556;28;20551;-74
2023/06/28 12:24:49;;;;;;;5.00;2.60;;;;;;;;;;5005501;28;20443;-75
2023/06/28 12:27:17;;;;;;;2.87;2.57;;;;;;;;;;4999959;28;20458;-75
2023/06/28 12:29:45;;;;;;;6.87;2.57;;;;;;;;;;5012701;28;20482;-75
2023/06/28 12:32:14;;;;;;;4.67;2.40;;;;;;;;;;5007767;28;20455;-75
2023/06/28 12:34:49;;;;;;;6.90;3.03;;;;;;;;;;4996221;28;20778;-75
2023/06/28 12:37:16;;;;;;;3.17;2.30;;;;;;;;;;4995736;28;20458;-75
2023/06/28 12:39:43;;;;;;;10.27;2.50;;;;;;;;;;4998216;28;20482;-75
2023/06/28 12:42:11;;;;;;;5.73;2.20;;;;;;;;;;5016094;28;20446;-75
2023/06/28 12:44:50;;;;;;;5.70;2.00;;;;;;;;;;5016731;28;20498;-74
2023/06/28 12:47:17;;;;;;;5.77;2.30;;;;;;;;;;5019056;28;20520;-75
2023/06/28 12:49:45;;;;;;;4.00;2.60;;;;;;;;;;5015358;28;21003;-75
2023/06/28 12:52:12;;;;;;;2.57;2.20;;;;;;;;;;5015977;28;20462;-75
2023/06/28 12:54:40;;;;;;;3.83;2.20;;;;;;;;;;5015456;28;20451;-75
2023/06/28 12:57:07;;;;;;;6.33;2.50;;;;;;;;;;5006661;28;20884;-75
2023/06/28 12:59:36;;;;;;;3.30;2.60;;;;;;;;;;4994893;28;20440;-75
2023/06/28 13:02:04;;;;;;;4.30;2.10;;;;;;;;;;5005808;28;20489;-75
2023/06/28 13:04:33;;;;;;;3.90;2.30;;;;;;;;;;5029313;28;20490;-75
2023/06/28 13:07:01;;;;;;;2.63;2.20;;;;;;;;;;5035000;28;20528;-75
2023/06/28 13:09:28;;;;;;;4.00;2.27;;;;;;;;;;5034491;28;20474;-75
2023/06/28 13:11:55;;;;;;;4.00;2.20;;;;;;;;;;5033683;28;20449;-75
2023/06/28 13:14:22;;;;;;;5.53;2.40;;;;;;;;;;5034604;28;20457;-75
2023/06/28 13:16:49;;;;;;;9.10;2.37;;;;;;;;;;5033906;28;20453;-75
2023/06/28 13:19:18;;;;;;;3.20;2.43;;;;;;;;;;5035052;28;20821;-75
2023/06/28 13:21:46;;;;;;;2.97;2.53;;;;;;;;;;5034833;28;20847;-75
2023/06/28 13:24:14;;;;;;;3.63;2.33;;;;;;;;;;5034737;28;20896;-75
2023/06/28 13:26:41;;;;;;;2.70;2.20;;;;;;;;;;5034425;28;20541;-75
2023/06/28 13:29:08;;;;;;;5.80;2.10;;;;;;;;;;5033806;28;20457;-75
2023/06/28 13:31:35;;;;;;;4.90;2.50;;;;;;;;;;5034506;28;20470;-75
2023/06/28 13:34:02;;;;;;;3.43;2.00;;;;;;;;;;5014095;28;20473;-75
2023/06/28 13:36:31;;;;;;;3.10;2.43;;;;;;;;;;5031596;28;20458;-75
2023/06/28 13:38:58;;;;;;;2.73;2.43;;;;;;;;;;5017099;28;20477;-76
2023/06/28 13:41:25;;;;;;;3.53;2.33;;;;;;;;;;5030836;28;20481;-76
2023/06/28 13:43:52;;;;;;;5.63;2.60;;;;;;;;;;5035515;28;20515;-76
2023/06/28 13:46:19;;;;;;;4.03;2.37;;;;;;;;;;5033749;28;20465;-76
2023/06/28 13:48:46;;;;;;;6.90;2.33;;;;;;;;;;5008320;28;20464;-77
2023/06/28 13:51:14;;;;;;;5.10;2.67;;;;;;;;;;5008209;28;20482;-76
2023/06/28 13:53:42;;;;;;;5.70;3.40;;;;;;;;;;5012077;28;20457;-76
2023/06/28 13:56:09;;;;;;;8.43;4.23;;;;;;;;;;5008558;28;20526;-76
2023/06/28 13:58:37;;;;;;;4.73;2.60;;;;;;;;;;5004790;28;20956;-76
2023/06/28 14:01:04;;;;;;;10.40;3.83;;;;;;;;;;5013312;28;20485;-77
2023/06/28 14:03:31;;;;;;;4.90;2.40;;;;;;;;;;5008893;28;20884;-76
2023/06/28 14:05:59;;;;;;;3.77;2.13;;;;;;;;;;5022874;28;20464;-77
2023/06/28 14:08:26;;;;;;;5.90;3.03;;;;;;;;;;5014691;28;20473;-76
2023/06/28 14:10:54;;;;;;;4.83;2.63;;;;;;;;;;5013369;28;20983;-77
2023/06/28 14:13:21;;;;;;;6.87;2.53;;;;;;;;;;5019271;28;20461;-76
2023/06/28 14:15:49;;;;;;;3.73;2.17;;;;;;;;;;5024074;28;20443;-77
2023/06/28 14:18:16;;;;;;;4.87;3.07;;;;;;;;;;5021019;28;20452;-75
2023/06/28 14:20:43;;;;;;;4.53;2.40;;;;;;;;;;5025649;28;20945;-76
2023/06/28 14:23:10;;;;;;;5.90;2.90;;;;;;;;;;4994810;28;20459;-76
2023/06/28 14:25:37;;;;;;;4.53;2.43;;;;;;;;;;4994768;28;20482;-76
2023/06/28 14:28:06;;;;;;;5.10;2.50;;;;;;;;;;4998652;28;20458;-76
2023/06/28 14:30:33;;;;;;;3.00;2.60;;;;;;;;;;5013216;28;20483;-76
2023/06/28 14:33:00;;;;;;;5.33;2.50;;;;;;;;;;5012409;28;20458;-76
2023/06/28 14:35:27;;;;;;;6.57;3.77;;;;;;;;;;5013890;28;20463;-76
2023/06/28 14:37:54;;;;;;;6.47;2.77;;;;;;;;;;5012909;28;20454;-76
2023/06/28 14:40:22;;;;;;;2.60;2.40;;;;;;;;;;5013845;28;20459;-76
2023/06/28 14:42:49;;;;;;;2.50;2.30;;;;;;;;;;5012473;28;20442;-76
2023/06/28 14:45:18;;;;;;;2.70;2.33;;;;;;;;;;5010648;28;20874;-77